sensor_id;sensor_type;location;lat;lon;timestamp;temperature;humidity
21171;DHT22;10743;52.160;20.910;2022-08-19T00:01:42;37.50;40.20
21171;DHT22;10743;52.160;20.910;2022-08-19T00:04:12;37.40;40.20
21171;DHT22;10743;52.160;20.910;2022-08-19T00:06:43;37.40;40.50
21171;DHT22;10743;52.160;20.910;2022-08-19T00:09:13;37.40;40.40
21171;DHT22;10743;52.160;20.910;2022-08-19T00:11:41;37.30;40.40
21171;DHT22;10743;52.160;20.910;2022-08-19T00:14:13;37.30;40.50
21171;DHT22;10743;52.160;20.910;2022-08-19T00:16:44;37.30;40.40
21171;DHT22;10743;52.160;20.910;2022-08-19T00:19:13;37.30;40.70
21171;DHT22;10743;52.160;20.910;2022-08-19T00:21:41;37.20;40.80
21171;DHT22;10743;52.160;20.910;2022-08-19T00:24:09;37.20;41.00
21171;DHT22;10743;52.160;20.910;2022-08-19T00:26:38;37.20;41.00
21171;DHT22;10743;52.160;20.910;2022-08-19T00:29:08;37.20;41.00
21171;DHT22;10743;52.160;20.910;2022-08-19T00:31:36;37.10;41.00
21171;DHT22;10743;52.160;20.910;2022-08-19T00:34:03;37.10;41.00
21171;DHT22;10743;52.160;20.910;2022-08-19T00:36:30;37.00;40.90
21171;DHT22;10743;52.160;20.910;2022-08-19T00:39:00;37.10;41.00
21171;DHT22;10743;52.160;20.910;2022-08-19T00:41:27;37.10;41.00
21171;DHT22;10743;52.160;20.910;2022-08-19T00:44:05;37.00;41.00
21171;DHT22;10743;52.160;20.910;2022-08-19T00:46:37;37.00;41.00
21171;DHT22;10743;52.160;20.910;2022-08-19T00:49:19;37.00;40.90
21171;DHT22;10743;52.160;20.910;2022-08-19T00:51:55;37.00;41.10
21171;DHT22;10743;52.160;20.910;2022-08-19T00:54:26;37.00;41.20
21171;DHT22;10743;52.160;20.910;2022-08-19T00:56:57;36.90;41.10
21171;DHT22;10743;52.160;20.910;2022-08-19T00:59:27;36.90;41.10
21171;DHT22;10743;52.160;20.910;2022-08-19T01:02:16;36.90;41.10
21171;DHT22;10743;52.160;20.910;2022-08-19T01:04:43;36.90;41.30
21171;DHT22;10743;52.160;20.910;2022-08-19T01:07:10;36.90;41.20
21171;DHT22;10743;52.160;20.910;2022-08-19T01:09:42;36.90;41.30
21171;DHT22;10743;52.160;20.910;2022-08-19T01:12:09;36.90;41.30
21171;DHT22;10743;52.160;20.910;2022-08-19T01:14:39;36.80;41.10
21171;DHT22;10743;52.160;20.910;2022-08-19T01:17:10;36.80;41.20
21171;DHT22;10743;52.160;20.910;2022-08-19T01:19:40;36.80;41.00
21171;DHT22;10743;52.160;20.910;2022-08-19T01:22:30;36.80;41.30
21171;DHT22;10743;52.160;20.910;2022-08-19T01:25:00;36.80;41.30
21171;DHT22;10743;52.160;20.910;2022-08-19T01:27:38;36.80;41.20
21171;DHT22;10743;52.160;20.910;2022-08-19T01:30:27;36.80;41.30
21171;DHT22;10743;52.160;20.910;2022-08-19T01:32:57;36.70;41.20
21171;DHT22;10743;52.160;20.910;2022-08-19T01:35:29;36.70;41.30
21171;DHT22;10743;52.160;20.910;2022-08-19T01:38:00;36.70;41.30
21171;DHT22;10743;52.160;20.910;2022-08-19T01:40:35;36.70;41.30
21171;DHT22;10743;52.160;20.910;2022-08-19T01:43:04;36.70;41.40
21171;DHT22;10743;52.160;20.910;2022-08-19T01:45:33;36.60;41.30
21171;DHT22;10743;52.160;20.910;2022-08-19T01:48:01;36.60;41.40
21171;DHT22;10743;52.160;20.910;2022-08-19T01:50:30;36.60;41.50
21171;DHT22;10743;52.160;20.910;2022-08-19T01:52:59;36.60;41.50
21171;DHT22;10743;52.160;20.910;2022-08-19T01:55:35;36.60;41.50
21171;DHT22;10743;52.160;20.910;2022-08-19T01:58:13;36.60;41.40
21171;DHT22;10743;52.160;20.910;2022-08-19T02:00:43;36.60;41.40
21171;DHT22;10743;52.160;20.910;2022-08-19T02:03:11;36.60;41.40
21171;DHT22;10743;52.160;20.910;2022-08-19T02:05:41;36.60;41.50
21171;DHT22;10743;52.160;20.910;2022-08-19T02:08:09;36.50;41.30
21171;DHT22;10743;52.160;20.910;2022-08-19T02:10:40;36.60;41.40
21171;DHT22;10743;52.160;20.910;2022-08-19T02:13:09;36.50;41.40
21171;DHT22;10743;52.160;20.910;2022-08-19T02:15:37;36.50;41.20
21171;DHT22;10743;52.160;20.910;2022-08-19T02:18:04;36.60;41.30
21171;DHT22;10743;52.160;20.910;2022-08-19T02:20:31;36.60;41.50
21171;DHT22;10743;52.160;20.910;2022-08-19T02:22:58;36.60;41.40
21171;DHT22;10743;52.160;20.910;2022-08-19T02:25:27;36.60;41.40
21171;DHT22;10743;52.160;20.910;2022-08-19T02:27:54;36.60;41.40
21171;DHT22;10743;52.160;20.910;2022-08-19T02:30:22;36.60;41.30
21171;DHT22;10743;52.160;20.910;2022-08-19T02:32:49;36.50;41.30
21171;DHT22;10743;52.160;20.910;2022-08-19T02:35:16;36.50;41.20
21171;DHT22;10743;52.160;20.910;2022-08-19T02:37:43;36.50;41.20
21171;DHT22;10743;52.160;20.910;2022-08-19T02:40:30;36.50;41.40
21171;DHT22;10743;52.160;20.910;2022-08-19T02:43:05;36.50;41.30
21171;DHT22;10743;52.160;20.910;2022-08-19T02:45:35;36.50;42.00
21171;DHT22;10743;52.160;20.910;2022-08-19T02:48:07;36.60;41.30
21171;DHT22;10743;52.160;20.910;2022-08-19T02:50:49;36.60;41.20
21171;DHT22;10743;52.160;20.910;2022-08-19T02:53:24;36.60;41.20
21171;DHT22;10743;52.160;20.910;2022-08-19T02:55:53;36.60;41.30
21171;DHT22;10743;52.160;20.910;2022-08-19T02:58:21;36.60;41.40
21171;DHT22;10743;52.160;20.910;2022-08-19T03:00:53;36.50;41.30
21171;DHT22;10743;52.160;20.910;2022-08-19T03:03:21;36.50;41.10
21171;DHT22;10743;52.160;20.910;2022-08-19T03:05:48;36.50;41.10
21171;DHT22;10743;52.160;20.910;2022-08-19T03:08:23;36.60;41.30
21171;DHT22;10743;52.160;20.910;2022-08-19T03:10:53;36.60;41.20
21171;DHT22;10743;52.160;20.910;2022-08-19T03:13:22;36.60;41.00
21171;DHT22;10743;52.160;20.910;2022-08-19T03:15:49;36.70;41.00
21171;DHT22;10743;52.160;20.910;2022-08-19T03:18:16;36.70;41.80
21171;DHT22;10743;52.160;20.910;2022-08-19T03:20:46;36.70;41.00
21171;DHT22;10743;52.160;20.910;2022-08-19T03:23:16;36.70;41.00
21171;DHT22;10743;52.160;20.910;2022-08-19T03:25:45;36.70;41.00
21171;DHT22;10743;52.160;20.910;2022-08-19T03:28:29;36.70;40.90
21171;DHT22;10743;52.160;20.910;2022-08-19T03:31:11;36.70;40.90
21171;DHT22;10743;52.160;20.910;2022-08-19T03:34:00;36.70;40.90
21171;DHT22;10743;52.160;20.910;2022-08-19T03:36:29;36.70;40.80
21171;DHT22;10743;52.160;20.910;2022-08-19T03:38:58;36.70;40.80
21171;DHT22;10743;52.160;20.910;2022-08-19T03:41:29;36.70;41.00
21171;DHT22;10743;52.160;20.910;2022-08-19T03:44:11;36.70;40.90
21171;DHT22;10743;52.160;20.910;2022-08-19T03:47:03;36.70;41.00
21171;DHT22;10743;52.160;20.910;2022-08-19T03:49:32;36.70;41.00
21171;DHT22;10743;52.160;20.910;2022-08-19T03:52:02;36.60;41.10
21171;DHT22;10743;52.160;20.910;2022-08-19T03:54:33;36.60;41.30
21171;DHT22;10743;52.160;20.910;2022-08-19T03:57:01;36.50;41.20
21171;DHT22;10743;52.160;20.910;2022-08-19T03:59:32;36.50;42.10
21171;DHT22;10743;52.160;20.910;2022-08-19T04:02:05;36.50;41.50
21171;DHT22;10743;52.160;20.910;2022-08-19T04:04:38;36.50;41.60
21171;DHT22;10743;52.160;20.910;2022-08-19T04:07:06;36.40;41.60
21171;DHT22;10743;52.160;20.910;2022-08-19T04:09:35;36.40;41.40
21171;DHT22;10743;52.160;20.910;2022-08-19T04:12:03;36.50;41.70
21171;DHT22;10743;52.160;20.910;2022-08-19T04:14:32;36.50;41.70
21171;DHT22;10743;52.160;20.910;2022-08-19T04:17:01;36.50;41.70
21171;DHT22;10743;52.160;20.910;2022-08-19T04:19:33;36.50;41.60
21171;DHT22;10743;52.160;20.910;2022-08-19T04:22:01;36.50;41.70
21171;DHT22;10743;52.160;20.910;2022-08-19T04:24:28;36.50;41.60
21171;DHT22;10743;52.160;20.910;2022-08-19T04:26:55;36.50;41.50
21171;DHT22;10743;52.160;20.910;2022-08-19T04:29:24;36.50;41.70
21171;DHT22;10743;52.160;20.910;2022-08-19T04:31:53;36.50;41.70
21171;DHT22;10743;52.160;20.910;2022-08-19T04:34:23;36.60;41.40
21171;DHT22;10743;52.160;20.910;2022-08-19T04:36:55;36.60;41.70
21171;DHT22;10743;52.160;20.910;2022-08-19T04:39:27;36.60;41.60
21171;DHT22;10743;52.160;20.910;2022-08-19T04:42:15;36.60;41.60
21171;DHT22;10743;52.160;20.910;2022-08-19T04:45:03;36.60;41.40
21171;DHT22;10743;52.160;20.910;2022-08-19T04:47:40;36.60;41.60
21171;DHT22;10743;52.160;20.910;2022-08-19T04:50:25;36.70;41.90
21171;DHT22;10743;52.160;20.910;2022-08-19T04:52:53;36.70;42.10
21171;DHT22;10743;52.160;20.910;2022-08-19T04:55:22;36.80;41.80
21171;DHT22;10743;52.160;20.910;2022-08-19T04:57:53;36.80;42.00
21171;DHT22;10743;52.160;20.910;2022-08-19T05:00:20;36.80;42.00
21171;DHT22;10743;52.160;20.910;2022-08-19T05:02:47;36.80;42.00
21171;DHT22;10743;52.160;20.910;2022-08-19T05:05:16;36.90;42.10
21171;DHT22;10743;52.160;20.910;2022-08-19T05:07:43;36.90;42.00
21171;DHT22;10743;52.160;20.910;2022-08-19T05:10:10;36.90;41.70
21171;DHT22;10743;52.160;20.910;2022-08-19T05:12:38;36.90;41.70
21171;DHT22;10743;52.160;20.910;2022-08-19T05:15:06;37.00;41.70
21171;DHT22;10743;52.160;20.910;2022-08-19T05:17:35;37.00;41.70
21171;DHT22;10743;52.160;20.910;2022-08-19T05:20:06;37.00;41.80
21171;DHT22;10743;52.160;20.910;2022-08-19T05:22:52;37.00;41.80
21171;DHT22;10743;52.160;20.910;2022-08-19T05:25:20;37.00;41.80
21171;DHT22;10743;52.160;20.910;2022-08-19T05:27:48;37.00;41.90
21171;DHT22;10743;52.160;20.910;2022-08-19T05:30:15;37.00;41.90
21171;DHT22;10743;52.160;20.910;2022-08-19T05:32:44;37.00;41.70
21171;DHT22;10743;52.160;20.910;2022-08-19T05:35:11;37.00;41.60
21171;DHT22;10743;52.160;20.910;2022-08-19T05:37:39;37.10;41.70
21171;DHT22;10743;52.160;20.910;2022-08-19T05:40:08;37.10;41.80
21171;DHT22;10743;52.160;20.910;2022-08-19T05:42:36;37.10;41.80
21171;DHT22;10743;52.160;20.910;2022-08-19T05:45:04;37.10;41.50
21171;DHT22;10743;52.160;20.910;2022-08-19T05:47:32;37.20;41.70
21171;DHT22;10743;52.160;20.910;2022-08-19T05:49:59;37.20;41.60
21171;DHT22;10743;52.160;20.910;2022-08-19T05:52:30;37.30;41.60
21171;DHT22;10743;52.160;20.910;2022-08-19T05:54:59;37.30;41.40
21171;DHT22;10743;52.160;20.910;2022-08-19T05:57:25;37.30;41.20
21171;DHT22;10743;52.160;20.910;2022-08-19T05:59:55;37.40;41.20
21171;DHT22;10743;52.160;20.910;2022-08-19T06:02:30;37.40;41.20
21171;DHT22;10743;52.160;20.910;2022-08-19T06:04:57;37.50;41.50
21171;DHT22;10743;52.160;20.910;2022-08-19T06:07:25;37.50;41.50
21171;DHT22;10743;52.160;20.910;2022-08-19T06:09:52;37.50;41.50
21171;DHT22;10743;52.160;20.910;2022-08-19T06:12:30;37.60;41.30
21171;DHT22;10743;52.160;20.910;2022-08-19T06:15:08;37.60;41.30
21171;DHT22;10743;52.160;20.910;2022-08-19T06:17:37;37.60;41.20
21171;DHT22;10743;52.160;20.910;2022-08-19T06:20:06;37.70;41.10
21171;DHT22;10743;52.160;20.910;2022-08-19T06:22:41;37.70;41.40
21171;DHT22;10743;52.160;20.910;2022-08-19T06:25:11;37.70;40.90
21171;DHT22;10743;52.160;20.910;2022-08-19T06:27:39;37.70;40.80
21171;DHT22;10743;52.160;20.910;2022-08-19T06:30:27;37.80;40.90
21171;DHT22;10743;52.160;20.910;2022-08-19T06:32:54;37.80;40.90
21171;DHT22;10743;52.160;20.910;2022-08-19T06:35:21;37.90;40.70
21171;DHT22;10743;52.160;20.910;2022-08-19T06:37:48;37.90;40.90
21171;DHT22;10743;52.160;20.910;2022-08-19T06:40:15;37.90;41.20
21171;DHT22;10743;52.160;20.910;2022-08-19T06:42:42;37.90;40.90
21171;DHT22;10743;52.160;20.910;2022-08-19T06:45:20;37.90;40.90
21171;DHT22;10743;52.160;20.910;2022-08-19T06:47:51;38.00;40.90
21171;DHT22;10743;52.160;20.910;2022-08-19T06:50:25;38.00;41.00
21171;DHT22;10743;52.160;20.910;2022-08-19T06:52:52;38.00;41.00
21171;DHT22;10743;52.160;20.910;2022-08-19T06:55:21;38.10;41.20
21171;DHT22;10743;52.160;20.910;2022-08-19T06:57:48;38.10;41.00
21171;DHT22;10743;52.160;20.910;2022-08-19T07:00:20;38.10;40.90
21171;DHT22;10743;52.160;20.910;2022-08-19T07:02:47;38.20;40.80
21171;DHT22;10743;52.160;20.910;2022-08-19T07:05:22;38.20;41.00
21171;DHT22;10743;52.160;20.910;2022-08-19T07:07:49;38.20;41.30
21171;DHT22;10743;52.160;20.910;2022-08-19T07:10:17;38.30;41.10
21171;DHT22;10743;52.160;20.910;2022-08-19T07:12:45;38.30;41.60
21171;DHT22;10743;52.160;20.910;2022-08-19T07:15:12;38.40;41.40
21171;DHT22;10743;52.160;20.910;2022-08-19T07:17:39;38.40;41.60
21171;DHT22;10743;52.160;20.910;2022-08-19T07:20:09;38.50;41.10
21171;DHT22;10743;52.160;20.910;2022-08-19T07:22:37;38.50;41.10
21171;DHT22;10743;52.160;20.910;2022-08-19T07:25:07;38.60;41.10
21171;DHT22;10743;52.160;20.910;2022-08-19T07:27:35;38.60;41.30
21171;DHT22;10743;52.160;20.910;2022-08-19T07:30:06;38.60;41.10
21171;DHT22;10743;52.160;20.910;2022-08-19T07:32:38;38.70;40.60
21171;DHT22;10743;52.160;20.910;2022-08-19T07:35:06;38.70;40.70
21171;DHT22;10743;52.160;20.910;2022-08-19T07:37:34;38.80;41.00
21171;DHT22;10743;52.160;20.910;2022-08-19T07:40:04;38.80;40.60
21171;DHT22;10743;52.160;20.910;2022-08-19T07:42:33;38.90;40.60
21171;DHT22;10743;52.160;20.910;2022-08-19T07:44:59;39.00;41.00
21171;DHT22;10743;52.160;20.910;2022-08-19T07:47:27;39.00;40.90
21171;DHT22;10743;52.160;20.910;2022-08-19T07:50:15;39.10;40.40
21171;DHT22;10743;52.160;20.910;2022-08-19T07:52:42;39.20;40.60
21171;DHT22;10743;52.160;20.910;2022-08-19T07:55:17;39.20;40.60
21171;DHT22;10743;52.160;20.910;2022-08-19T07:58:07;39.30;40.20
21171;DHT22;10743;52.160;20.910;2022-08-19T08:00:34;39.40;40.30
21171;DHT22;10743;52.160;20.910;2022-08-19T08:03:02;39.40;40.10
21171;DHT22;10743;52.160;20.910;2022-08-19T08:05:29;39.50;40.60
21171;DHT22;10743;52.160;20.910;2022-08-19T08:08:31;39.50;40.80
21171;DHT22;10743;52.160;20.910;2022-08-19T08:11:19;39.60;40.40
21171;DHT22;10743;52.160;20.910;2022-08-19T08:13:49;39.60;40.30
21171;DHT22;10743;52.160;20.910;2022-08-19T08:16:30;39.70;40.70
21171;DHT22;10743;52.160;20.910;2022-08-19T08:19:00;39.70;40.80
21171;DHT22;10743;52.160;20.910;2022-08-19T08:21:27;39.80;40.60
21171;DHT22;10743;52.160;20.910;2022-08-19T08:23:54;39.80;40.70
21171;DHT22;10743;52.160;20.910;2022-08-19T08:26:22;39.90;40.50
21171;DHT22;10743;52.160;20.910;2022-08-19T08:28:52;39.90;40.10
21171;DHT22;10743;52.160;20.910;2022-08-19T08:31:20;40.10;40.40
21171;DHT22;10743;52.160;20.910;2022-08-19T08:33:47;40.20;40.90
21171;DHT22;10743;52.160;20.910;2022-08-19T08:36:15;40.20;40.10
21171;DHT22;10743;52.160;20.910;2022-08-19T08:38:42;40.30;40.40
21171;DHT22;10743;52.160;20.910;2022-08-19T08:41:30;40.30;40.00
21171;DHT22;10743;52.160;20.910;2022-08-19T08:44:02;40.40;40.00
21171;DHT22;10743;52.160;20.910;2022-08-19T08:46:41;40.50;40.00
21171;DHT22;10743;52.160;20.910;2022-08-19T08:51:52;40.60;39.90
21171;DHT22;10743;52.160;20.910;2022-08-19T08:54:32;40.70;41.00
21171;DHT22;10743;52.160;20.910;2022-08-19T08:57:05;40.80;40.50
21171;DHT22;10743;52.160;20.910;2022-08-19T08:59:38;40.90;40.40
21171;DHT22;10743;52.160;20.910;2022-08-19T09:02:08;40.90;39.60
21171;DHT22;10743;52.160;20.910;2022-08-19T09:04:36;40.90;40.50
21171;DHT22;10743;52.160;20.910;2022-08-19T09:07:30;41.00;39.20
21171;DHT22;10743;52.160;20.910;2022-08-19T09:13:32;41.20;38.30
21171;DHT22;10743;52.160;20.910;2022-08-19T09:16:16;41.20;39.20
21171;DHT22;10743;52.160;20.910;2022-08-19T09:18:56;41.30;39.00
21171;DHT22;10743;52.160;20.910;2022-08-19T09:21:25;41.30;37.10
21171;DHT22;10743;52.160;20.910;2022-08-19T09:23:58;41.40;36.90
21171;DHT22;10743;52.160;20.910;2022-08-19T09:26:29;41.50;37.00
21171;DHT22;10743;52.160;20.910;2022-08-19T09:29:16;41.60;37.20
21171;DHT22;10743;52.160;20.910;2022-08-19T09:31:43;41.70;37.50
21171;DHT22;10743;52.160;20.910;2022-08-19T09:34:10;41.80;37.60
21171;DHT22;10743;52.160;20.910;2022-08-19T09:36:48;41.90;37.20
21171;DHT22;10743;52.160;20.910;2022-08-19T09:39:21;42.00;36.00
21171;DHT22;10743;52.160;20.910;2022-08-19T09:41:48;42.10;36.20
21171;DHT22;10743;52.160;20.910;2022-08-19T09:44:17;42.10;36.40
21171;DHT22;10743;52.160;20.910;2022-08-19T09:46:44;42.20;36.20
21171;DHT22;10743;52.160;20.910;2022-08-19T09:49:15;42.30;36.50
21171;DHT22;10743;52.160;20.910;2022-08-19T09:51:51;42.30;36.70
21171;DHT22;10743;52.160;20.910;2022-08-19T09:54:20;42.40;35.70
21171;DHT22;10743;52.160;20.910;2022-08-19T09:56:50;42.40;35.70
21171;DHT22;10743;52.160;20.910;2022-08-19T09:59:18;42.50;35.30
21171;DHT22;10743;52.160;20.910;2022-08-19T10:01:45;42.60;35.80
21171;DHT22;10743;52.160;20.910;2022-08-19T10:04:12;42.60;34.80
21171;DHT22;10743;52.160;20.910;2022-08-19T10:06:45;42.60;33.80
21171;DHT22;10743;52.160;20.910;2022-08-19T10:09:19;42.80;34.10
21171;DHT22;10743;52.160;20.910;2022-08-19T10:12:01;42.80;34.00
21171;DHT22;10743;52.160;20.910;2022-08-19T10:14:30;42.80;35.00
21171;DHT22;10743;52.160;20.910;2022-08-19T10:16:57;42.90;34.40
21171;DHT22;10743;52.160;20.910;2022-08-19T10:19:25;42.90;34.70
21171;DHT22;10743;52.160;20.910;2022-08-19T10:21:53;42.90;35.50
21171;DHT22;10743;52.160;20.910;2022-08-19T10:24:26;43.00;35.30
21171;DHT22;10743;52.160;20.910;2022-08-19T10:26:54;43.10;34.40
21171;DHT22;10743;52.160;20.910;2022-08-19T10:29:26;43.10;33.80
21171;DHT22;10743;52.160;20.910;2022-08-19T10:32:04;43.10;35.40
21171;DHT22;10743;52.160;20.910;2022-08-19T10:34:37;43.20;34.30
21171;DHT22;10743;52.160;20.910;2022-08-19T10:37:16;43.30;33.80
21171;DHT22;10743;52.160;20.910;2022-08-19T10:39:54;43.30;33.90
21171;DHT22;10743;52.160;20.910;2022-08-19T10:42:21;43.30;33.50
21171;DHT22;10743;52.160;20.910;2022-08-19T10:44:48;43.40;33.00
21171;DHT22;10743;52.160;20.910;2022-08-19T10:47:17;43.40;31.60
21171;DHT22;10743;52.160;20.910;2022-08-19T10:49:55;43.50;31.60
21171;DHT22;10743;52.160;20.910;2022-08-19T10:52:43;43.50;31.90
21171;DHT22;10743;52.160;20.910;2022-08-19T10:55:20;43.50;33.20
21171;DHT22;10743;52.160;20.910;2022-08-19T10:58:16;43.60;33.10
21171;DHT22;10743;52.160;20.910;2022-08-19T11:00:52;43.60;33.20
21171;DHT22;10743;52.160;20.910;2022-08-19T11:03:20;43.60;33.70
21171;DHT22;10743;52.160;20.910;2022-08-19T11:05:58;43.70;32.30
21171;DHT22;10743;52.160;20.910;2022-08-19T11:08:26;43.70;32.90
21171;DHT22;10743;52.160;20.910;2022-08-19T11:10:54;43.70;32.70
21171;DHT22;10743;52.160;20.910;2022-08-19T11:13:24;43.80;32.40
21171;DHT22;10743;52.160;20.910;2022-08-19T11:16:02;43.80;31.60
21171;DHT22;10743;52.160;20.910;2022-08-19T11:18:35;43.90;32.20
21171;DHT22;10743;52.160;20.910;2022-08-19T11:21:10;43.90;32.20
21171;DHT22;10743;52.160;20.910;2022-08-19T11:23:47;43.90;32.30
21171;DHT22;10743;52.160;20.910;2022-08-19T11:26:16;43.90;32.40
21171;DHT22;10743;52.160;20.910;2022-08-19T11:28:43;44.00;32.30
21171;DHT22;10743;52.160;20.910;2022-08-19T11:31:16;44.00;32.60
21171;DHT22;10743;52.160;20.910;2022-08-19T11:33:45;44.00;31.60
21171;DHT22;10743;52.160;20.910;2022-08-19T11:36:14;44.10;31.90
21171;DHT22;10743;52.160;20.910;2022-08-19T11:38:42;44.10;32.60
21171;DHT22;10743;52.160;20.910;2022-08-19T11:41:09;44.10;32.20
21171;DHT22;10743;52.160;20.910;2022-08-19T11:43:36;44.10;31.60
21171;DHT22;10743;52.160;20.910;2022-08-19T11:46:06;44.10;32.50
21171;DHT22;10743;52.160;20.910;2022-08-19T11:48:34;44.10;31.60
21171;DHT22;10743;52.160;20.910;2022-08-19T11:51:12;44.10;32.00
21171;DHT22;10743;52.160;20.910;2022-08-19T11:53:41;44.20;32.20
21171;DHT22;10743;52.160;20.910;2022-08-19T11:56:09;44.20;32.10
21171;DHT22;10743;52.160;20.910;2022-08-19T11:58:37;44.20;32.20
21171;DHT22;10743;52.160;20.910;2022-08-19T12:01:09;44.20;32.30
21171;DHT22;10743;52.160;20.910;2022-08-19T12:03:38;44.20;32.20
21171;DHT22;10743;52.160;20.910;2022-08-19T12:06:12;44.20;32.10
21171;DHT22;10743;52.160;20.910;2022-08-19T12:08:41;44.30;32.70
21171;DHT22;10743;52.160;20.910;2022-08-19T12:11:11;44.30;32.10
21171;DHT22;10743;52.160;20.910;2022-08-19T12:13:42;44.30;32.30
21171;DHT22;10743;52.160;20.910;2022-08-19T12:16:18;44.30;31.70
21171;DHT22;10743;52.160;20.910;2022-08-19T12:18:50;44.40;32.30
21171;DHT22;10743;52.160;20.910;2022-08-19T12:21:24;44.40;31.70
21171;DHT22;10743;52.160;20.910;2022-08-19T12:23:56;44.40;31.50
21171;DHT22;10743;52.160;20.910;2022-08-19T12:26:25;44.50;32.10
21171;DHT22;10743;52.160;20.910;2022-08-19T12:28:53;44.50;31.60
21171;DHT22;10743;52.160;20.910;2022-08-19T12:31:21;44.50;31.00
21171;DHT22;10743;52.160;20.910;2022-08-19T12:33:48;44.50;31.20
21171;DHT22;10743;52.160;20.910;2022-08-19T12:36:16;44.60;31.10
21171;DHT22;10743;52.160;20.910;2022-08-19T12:38:44;44.60;29.90
21171;DHT22;10743;52.160;20.910;2022-08-19T12:41:13;44.70;30.50
21171;DHT22;10743;52.160;20.910;2022-08-19T12:43:41;44.70;31.40
21171;DHT22;10743;52.160;20.910;2022-08-19T12:46:10;44.70;31.20
21171;DHT22;10743;52.160;20.910;2022-08-19T12:48:39;44.70;30.90
21171;DHT22;10743;52.160;20.910;2022-08-19T12:51:13;44.80;32.00
21171;DHT22;10743;52.160;20.910;2022-08-19T12:53:43;44.80;31.80
21171;DHT22;10743;52.160;20.910;2022-08-19T12:56:11;44.80;31.80
21171;DHT22;10743;52.160;20.910;2022-08-19T12:58:42;44.80;31.40
21171;DHT22;10743;52.160;20.910;2022-08-19T13:01:18;44.80;30.60
21171;DHT22;10743;52.160;20.910;2022-08-19T13:03:49;44.90;29.80
21171;DHT22;10743;52.160;20.910;2022-08-19T13:06:19;44.90;30.00
21171;DHT22;10743;52.160;20.910;2022-08-19T13:08:46;44.90;31.50
21171;DHT22;10743;52.160;20.910;2022-08-19T13:11:16;44.90;30.40
21171;DHT22;10743;52.160;20.910;2022-08-19T13:13:46;44.90;30.80
21171;DHT22;10743;52.160;20.910;2022-08-19T13:16:14;44.90;30.40
21171;DHT22;10743;52.160;20.910;2022-08-19T13:18:42;44.90;31.20
21171;DHT22;10743;52.160;20.910;2022-08-19T13:21:11;44.90;30.30
21171;DHT22;10743;52.160;20.910;2022-08-19T13:23:40;44.90;30.30
21171;DHT22;10743;52.160;20.910;2022-08-19T13:26:08;44.90;31.20
21171;DHT22;10743;52.160;20.910;2022-08-19T13:28:37;44.90;30.70
21171;DHT22;10743;52.160;20.910;2022-08-19T13:31:25;44.90;30.10
21171;DHT22;10743;52.160;20.910;2022-08-19T13:34:11;44.90;30.30
21171;DHT22;10743;52.160;20.910;2022-08-19T13:36:38;44.90;29.80
21171;DHT22;10743;52.160;20.910;2022-08-19T13:39:06;44.90;30.80
21171;DHT22;10743;52.160;20.910;2022-08-19T13:41:43;44.80;30.40
21171;DHT22;10743;52.160;20.910;2022-08-19T13:44:18;44.80;30.00
21171;DHT22;10743;52.160;20.910;2022-08-19T13:46:49;44.80;31.10
21171;DHT22;10743;52.160;20.910;2022-08-19T13:49:19;44.70;31.60
21171;DHT22;10743;52.160;20.910;2022-08-19T13:51:47;44.70;30.40
21171;DHT22;10743;52.160;20.910;2022-08-19T13:54:14;44.70;31.10
21171;DHT22;10743;52.160;20.910;2022-08-19T13:56:42;44.70;30.20
21171;DHT22;10743;52.160;20.910;2022-08-19T13:59:11;44.60;30.60
21171;DHT22;10743;52.160;20.910;2022-08-19T14:01:39;44.60;30.80
21171;DHT22;10743;52.160;20.910;2022-08-19T14:04:07;44.60;30.40
21171;DHT22;10743;52.160;20.910;2022-08-19T14:06:35;44.60;30.20
21171;DHT22;10743;52.160;20.910;2022-08-19T14:09:02;44.60;30.50
21171;DHT22;10743;52.160;20.910;2022-08-19T14:11:29;44.50;30.00
21171;DHT22;10743;52.160;20.910;2022-08-19T14:13:56;44.60;30.80
21171;DHT22;10743;52.160;20.910;2022-08-19T14:16:23;44.50;30.30
21171;DHT22;10743;52.160;20.910;2022-08-19T14:18:51;44.50;30.40
21171;DHT22;10743;52.160;20.910;2022-08-19T14:21:23;44.50;30.00
21171;DHT22;10743;52.160;20.910;2022-08-19T14:23:52;44.50;30.60
21171;DHT22;10743;52.160;20.910;2022-08-19T14:26:21;44.40;30.50
21171;DHT22;10743;52.160;20.910;2022-08-19T14:28:48;44.40;30.30
21171;DHT22;10743;52.160;20.910;2022-08-19T14:31:17;44.40;30.40
21171;DHT22;10743;52.160;20.910;2022-08-19T14:33:46;44.40;30.30
21171;DHT22;10743;52.160;20.910;2022-08-19T14:36:14;44.40;30.40
21171;DHT22;10743;52.160;20.910;2022-08-19T14:38:41;44.40;30.20
21171;DHT22;10743;52.160;20.910;2022-08-19T14:41:18;44.40;31.00
21171;DHT22;10743;52.160;20.910;2022-08-19T14:43:49;44.40;30.10
21171;DHT22;10743;52.160;20.910;2022-08-19T14:46:19;44.30;30.90
21171;DHT22;10743;52.160;20.910;2022-08-19T14:48:48;44.30;30.70
21171;DHT22;10743;52.160;20.910;2022-08-19T14:51:20;44.30;30.80
21171;DHT22;10743;52.160;20.910;2022-08-19T14:53:48;44.20;31.70
21171;DHT22;10743;52.160;20.910;2022-08-19T14:56:18;44.20;31.70
21171;DHT22;10743;52.160;20.910;2022-08-19T14:58:48;44.20;30.80
21171;DHT22;10743;52.160;20.910;2022-08-19T15:01:20;44.20;30.60
21171;DHT22;10743;52.160;20.910;2022-08-19T15:03:49;44.20;30.70
21171;DHT22;10743;52.160;20.910;2022-08-19T15:06:20;44.10;30.50
21171;DHT22;10743;52.160;20.910;2022-08-19T15:08:48;44.10;30.00
21171;DHT22;10743;52.160;20.910;2022-08-19T15:11:19;44.10;30.00
21171;DHT22;10743;52.160;20.910;2022-08-19T15:13:47;44.10;29.70
21171;DHT22;10743;52.160;20.910;2022-08-19T15:16:15;44.10;30.30
21171;DHT22;10743;52.160;20.910;2022-08-19T15:18:45;44.10;31.30
21171;DHT22;10743;52.160;20.910;2022-08-19T15:21:14;44.00;30.70
21171;DHT22;10743;52.160;20.910;2022-08-19T15:23:54;44.00;30.90
21171;DHT22;10743;52.160;20.910;2022-08-19T15:26:22;43.90;30.00
21171;DHT22;10743;52.160;20.910;2022-08-19T15:28:49;44.00;30.50
21171;DHT22;10743;52.160;20.910;2022-08-19T15:31:18;43.90;30.10
21171;DHT22;10743;52.160;20.910;2022-08-19T15:33:56;43.90;30.20
21171;DHT22;10743;52.160;20.910;2022-08-19T15:36:27;43.90;29.40
21171;DHT22;10743;52.160;20.910;2022-08-19T15:38:55;43.80;30.00
21171;DHT22;10743;52.160;20.910;2022-08-19T15:41:25;43.80;30.00
21171;DHT22;10743;52.160;20.910;2022-08-19T15:44:15;43.80;30.00
21171;DHT22;10743;52.160;20.910;2022-08-19T15:46:46;43.70;29.90